AAL1071 KCLT-KEWR
Flight info
| Callsign | AAL1071 |
|---|---|
| Flight time | 1h 27m |
| Altitude | 37000 |
| Route | KILNS5 AUDII QUART PHLBO4 |
| Aircraft | B763/H-SDE3FGHIM3RWXY/LB1 |
Departure
| Time | 2026-05-05 09:41 |
|---|---|
| Airport | Charlotte Douglas International Airport (KCLT) |
Arrival
| Time | 2026-05-05 11:08 |
|---|---|
| Airport | Newark Liberty International Airport (KEWR) |
| Time | Latitude | Longitude | Altitude | Speed | Heading |
|---|---|---|---|---|---|
| 2026-05-05 09:18 | 35.21749 | -80.94509 | 725 ft | 0 kts | 339° |
| 2026-05-05 09:32 | 35.21764 | -80.94516 | 725 ft | 5 kts | 340° |
| 2026-05-05 09:32 | 35.21832 | -80.94544 | 726 ft | 15 kts | 342° |
| 2026-05-05 09:32 | 35.21874 | -80.94560 | 727 ft | 0 kts | 343° |
| 2026-05-05 09:33 | 35.21823 | -80.94541 | 726 ft | 13 kts | 343° |
| 2026-05-05 09:33 | 35.21717 | -80.94501 | 724 ft | 7 kts | 349° |
| 2026-05-05 09:33 | 35.21697 | -80.94509 | 724 ft | 0 kts | 53° |
| 2026-05-05 09:33 | 35.21696 | -80.94509 | 724 ft | 0 kts | 56° |
| 2026-05-05 09:34 | 35.21697 | -80.94509 | 724 ft | 0 kts | 56° |
| 2026-05-05 09:35 | 35.21700 | -80.94502 | 724 ft | 2 kts | 56° |
| 2026-05-05 09:35 | 35.21695 | -80.94443 | 724 ft | 6 kts | 105° |
| 2026-05-05 09:35 | 35.21679 | -80.94374 | 723 ft | 9 kts | 105° |
| 2026-05-05 09:36 | 35.21659 | -80.94283 | 724 ft | 11 kts | 103° |
| 2026-05-05 09:36 | 35.21661 | -80.94196 | 726 ft | 9 kts | 62° |
| 2026-05-05 09:36 | 35.21697 | -80.94132 | 728 ft | 9 kts | 53° |
| 2026-05-05 09:36 | 35.21737 | -80.94073 | 730 ft | 9 kts | 49° |
| 2026-05-05 09:37 | 35.21778 | -80.94012 | 732 ft | 8 kts | 56° |
| 2026-05-05 09:37 | 35.21814 | -80.93948 | 734 ft | 9 kts | 55° |
| 2026-05-05 09:37 | 35.21862 | -80.93871 | 735 ft | 12 kts | 51° |
| 2026-05-05 09:37 | 35.21927 | -80.93775 | 737 ft | 16 kts | 50° |
| 2026-05-05 09:38 | 35.21993 | -80.93708 | 739 ft | 8 kts | 356° |
| 2026-05-05 09:38 | 35.22066 | -80.93713 | 740 ft | 12 kts | 356° |
| 2026-05-05 09:38 | 35.22164 | -80.93722 | 742 ft | 16 kts | 355° |
| 2026-05-05 09:38 | 35.22293 | -80.93734 | 741 ft | 21 kts | 356° |
| 2026-05-05 09:39 | 35.22401 | -80.93696 | 742 ft | 9 kts | 78° |
| 2026-05-05 09:39 | 35.22384 | -80.93616 | 743 ft | 10 kts | 145° |
| 2026-05-05 09:39 | 35.22337 | -80.93602 | 743 ft | 0 kts | 176° |
| 2026-05-05 09:39 | 35.22335 | -80.93602 | 743 ft | 1 kts | 176° |
| 2026-05-05 09:40 | 35.22314 | -80.93600 | 743 ft | 5 kts | 176° |
| 2026-05-05 09:40 | 35.22190 | -80.93592 | 743 ft | 35 kts | 176° |
| 2026-05-05 09:40 | 35.21807 | -80.93562 | 740 ft | 73 kts | 176° |
| 2026-05-05 09:40 | 35.21172 | -80.93506 | 730 ft | 109 kts | 176° |
| 2026-05-05 09:41 | 35.20296 | -80.93430 | 725 ft | 141 kts | 178° |
| 2026-05-05 09:41 | 35.19230 | -80.93353 | 791 ft | 166 kts | 179° |
| 2026-05-05 09:41 | 35.18010 | -80.93247 | 1095 ft | 181 kts | 178° |
| 2026-05-05 09:41 | 35.16759 | -80.93118 | 1778 ft | 179 kts | 180° |
| 2026-05-05 09:42 | 35.15533 | -80.92989 | 2388 ft | 179 kts | 181° |
| 2026-05-05 09:42 | 35.14286 | -80.92858 | 2930 ft | 182 kts | 181° |
| 2026-05-05 09:42 | 35.13002 | -80.92726 | 3408 ft | 189 kts | 181° |
| 2026-05-05 09:42 | 35.11673 | -80.92590 | 3898 ft | 195 kts | 180° |
| 2026-05-05 09:43 | 35.10312 | -80.92450 | 4381 ft | 202 kts | 180° |
| 2026-05-05 09:43 | 35.08892 | -80.92303 | 4868 ft | 209 kts | 179° |
| 2026-05-05 09:43 | 35.07415 | -80.92151 | 5354 ft | 216 kts | 179° |
| 2026-05-05 09:43 | 35.05900 | -80.91994 | 5844 ft | 223 kts | 178° |
| 2026-05-05 09:44 | 35.04339 | -80.91833 | 6330 ft | 229 kts | 178° |
| 2026-05-05 09:44 | 35.02719 | -80.91693 | 6814 ft | 235 kts | 185° |
| 2026-05-05 09:44 | 35.01173 | -80.92264 | 7332 ft | 235 kts | 216° |
| 2026-05-05 09:44 | 35.00136 | -80.93760 | 7877 ft | 241 kts | 245° |
| 2026-05-05 09:45 | 34.99904 | -80.95801 | 8408 ft | 251 kts | 275° |
| 2026-05-05 09:45 | 35.00611 | -80.97791 | 8914 ft | 263 kts | 306° |
| 2026-05-05 09:45 | 35.02076 | -80.99131 | 9433 ft | 273 kts | 336° |
| 2026-05-05 09:45 | 35.03966 | -80.99467 | 9952 ft | 277 kts | 7° |
| 2026-05-05 09:46 | 35.05762 | -80.98674 | 10448 ft | 277 kts | 38° |
| 2026-05-05 09:46 | 35.07066 | -80.96979 | 10977 ft | 285 kts | 56° |
| 2026-05-05 09:46 | 35.08351 | -80.95057 | 11465 ft | 301 kts | 50° |
| 2026-05-05 09:46 | 35.09773 | -80.93088 | 11931 ft | 318 kts | 50° |
| 2026-05-05 09:47 | 35.11297 | -80.91005 | 12400 ft | 335 kts | 47° |
| 2026-05-05 09:47 | 35.12769 | -80.88717 | 12879 ft | 353 kts | 62° |
| 2026-05-05 09:47 | 35.13746 | -80.85849 | 13390 ft | 380 kts | 72° |
| 2026-05-05 09:47 | 35.14735 | -80.82815 | 13858 ft | 393 kts | 65° |
| 2026-05-05 09:48 | 35.15898 | -80.79797 | 14301 ft | 391 kts | 65° |
| 2026-05-05 09:48 | 35.17104 | -80.76822 | 14752 ft | 393 kts | 63° |
| 2026-05-05 09:48 | 35.18334 | -80.73866 | 15308 ft | 392 kts | 63° |
| 2026-05-05 09:48 | 35.19614 | -80.70838 | 16091 ft | 407 kts | 62° |
| 2026-05-05 09:49 | 35.20947 | -80.67703 | 16871 ft | 426 kts | 62° |
| 2026-05-05 09:49 | 35.22328 | -80.64468 | 17659 ft | 442 kts | 62° |
| 2026-05-05 09:49 | 35.23782 | -80.61063 | 18442 ft | 458 kts | 61° |
| 2026-05-05 09:49 | 35.25275 | -80.57568 | 19197 ft | 472 kts | 61° |
| 2026-05-05 09:50 | 35.26799 | -80.53995 | 19982 ft | 484 kts | 61° |
| 2026-05-05 09:50 | 35.28374 | -80.50299 | 20748 ft | 489 kts | 61° |
| 2026-05-05 09:50 | 35.29957 | -80.46580 | 21507 ft | 495 kts | 61° |
| 2026-05-05 09:50 | 35.31544 | -80.42847 | 22264 ft | 501 kts | 61° |
| 2026-05-05 09:51 | 35.33163 | -80.39037 | 23028 ft | 506 kts | 61° |
| 2026-05-05 09:51 | 35.34781 | -80.35224 | 23793 ft | 510 kts | 60° |
| 2026-05-05 09:51 | 35.36420 | -80.31353 | 24650 ft | 509 kts | 61° |
| 2026-05-05 09:51 | 35.38052 | -80.27496 | 25558 ft | 507 kts | 60° |
| 2026-05-05 09:52 | 35.39668 | -80.23672 | 26490 ft | 503 kts | 60° |
| 2026-05-05 09:52 | 35.41257 | -80.19906 | 27670 ft | 493 kts | 60° |
| 2026-05-05 09:52 | 35.42765 | -80.16222 | 28847 ft | 481 kts | 64° |
| 2026-05-05 09:52 | 35.43952 | -80.12498 | 30035 ft | 467 kts | 66° |
| 2026-05-05 09:53 | 35.45090 | -80.08852 | 31192 ft | 451 kts | 66° |
| 2026-05-05 09:53 | 35.46169 | -80.05349 | 32332 ft | 433 kts | 66° |
| 2026-05-05 09:53 | 35.47210 | -80.01955 | 33474 ft | 413 kts | 66° |
| 2026-05-05 09:53 | 35.48230 | -79.98630 | 33225 ft | 431 kts | 66° |
| 2026-05-05 09:54 | 35.50375 | -79.91595 | 33607 ft | 439 kts | 66° |
| 2026-05-05 09:54 | 35.51437 | -79.88103 | 34142 ft | 436 kts | 66° |
| 2026-05-05 09:54 | 35.52498 | -79.84603 | 34609 ft | 433 kts | 66° |
| 2026-05-05 09:55 | 35.53561 | -79.81124 | 34913 ft | 433 kts | 65° |
| 2026-05-05 09:55 | 35.54633 | -79.77708 | 35209 ft | 432 kts | 65° |
| 2026-05-05 09:55 | 35.55720 | -79.74235 | 35519 ft | 432 kts | 65° |
| 2026-05-05 09:55 | 35.56800 | -79.70783 | 35826 ft | 430 kts | 65° |
| 2026-05-05 09:56 | 35.57870 | -79.67355 | 36122 ft | 429 kts | 65° |
| 2026-05-05 09:56 | 35.58932 | -79.63947 | 36430 ft | 427 kts | 65° |
| 2026-05-05 09:56 | 35.59995 | -79.60532 | 36825 ft | 425 kts | 65° |
| 2026-05-05 09:56 | 35.61047 | -79.57153 | 37082 ft | 424 kts | 64° |
| 2026-05-05 09:57 | 35.63173 | -79.50316 | 37090 ft | 434 kts | 65° |
| 2026-05-05 09:57 | 35.65361 | -79.43253 | 37085 ft | 445 kts | 65° |
| 2026-05-05 09:58 | 35.67594 | -79.36031 | 37068 ft | 456 kts | 65° |
| 2026-05-05 09:58 | 35.70271 | -79.28931 | 37070 ft | 458 kts | 52° |
| 2026-05-05 09:59 | 35.74540 | -79.23226 | 37090 ft | 455 kts | 33° |
| 2026-05-05 09:59 | 35.79658 | -79.18445 | 37056 ft | 464 kts | 32° |
| 2026-05-05 10:00 | 35.84895 | -79.13615 | 37046 ft | 472 kts | 32° |
| 2026-05-05 10:00 | 35.90190 | -79.08746 | 37060 ft | 478 kts | 32° |
| 2026-05-05 10:01 | 35.95606 | -79.03764 | 37065 ft | 484 kts | 32° |
| 2026-05-05 10:01 | 36.01040 | -78.98759 | 37058 ft | 490 kts | 33° |
| 2026-05-05 10:02 | 36.06508 | -78.93712 | 37050 ft | 489 kts | 33° |
| 2026-05-05 10:02 | 36.11961 | -78.88673 | 37051 ft | 488 kts | 33° |
| 2026-05-05 10:03 | 36.17408 | -78.83628 | 37053 ft | 490 kts | 33° |
| 2026-05-05 10:03 | 36.22979 | -78.78719 | 37050 ft | 489 kts | 29° |
| 2026-05-05 10:04 | 36.28654 | -78.74060 | 37039 ft | 489 kts | 29° |
| 2026-05-05 10:04 | 36.34294 | -78.69403 | 37044 ft | 490 kts | 29° |
| 2026-05-05 10:05 | 36.40009 | -78.64674 | 37044 ft | 491 kts | 30° |
| 2026-05-05 10:05 | 36.45661 | -78.59986 | 37040 ft | 489 kts | 30° |
| 2026-05-05 10:06 | 36.51336 | -78.55271 | 37041 ft | 490 kts | 30° |
| 2026-05-05 10:06 | 36.57017 | -78.50542 | 37037 ft | 490 kts | 30° |
| 2026-05-05 10:07 | 36.62668 | -78.45830 | 37030 ft | 491 kts | 30° |
| 2026-05-05 10:07 | 36.68357 | -78.41078 | 37037 ft | 491 kts | 30° |
| 2026-05-05 10:08 | 36.74082 | -78.36288 | 37037 ft | 492 kts | 30° |
| 2026-05-05 10:08 | 36.79762 | -78.31525 | 37014 ft | 488 kts | 30° |
| 2026-05-05 10:09 | 36.85312 | -78.26860 | 37015 ft | 472 kts | 30° |
| 2026-05-05 10:09 | 36.90756 | -78.22282 | 37013 ft | 476 kts | 30° |
| 2026-05-05 10:10 | 36.96269 | -78.17637 | 37022 ft | 479 kts | 30° |
| 2026-05-05 10:10 | 37.01798 | -78.12967 | 37007 ft | 477 kts | 30° |
| 2026-05-05 10:11 | 37.07274 | -78.08336 | 37011 ft | 477 kts | 30° |
| 2026-05-05 10:11 | 37.12806 | -78.03648 | 37025 ft | 478 kts | 30° |
| 2026-05-05 10:12 | 37.18310 | -77.98975 | 37024 ft | 478 kts | 30° |
| 2026-05-05 10:12 | 37.23840 | -77.94273 | 37009 ft | 478 kts | 30° |
| 2026-05-05 10:13 | 37.29322 | -77.89603 | 37015 ft | 477 kts | 30° |
| 2026-05-05 10:13 | 37.34830 | -77.84901 | 37008 ft | 478 kts | 30° |
| 2026-05-05 10:14 | 37.40333 | -77.80197 | 37009 ft | 478 kts | 30° |
| 2026-05-05 10:14 | 37.45816 | -77.75500 | 37006 ft | 477 kts | 30° |
| 2026-05-05 10:15 | 37.51295 | -77.70799 | 37010 ft | 478 kts | 30° |
| 2026-05-05 10:15 | 37.56823 | -77.66047 | 37001 ft | 477 kts | 30° |
| 2026-05-05 10:16 | 37.62297 | -77.61333 | 37001 ft | 478 kts | 30° |
| 2026-05-05 10:16 | 37.67812 | -77.56574 | 37001 ft | 478 kts | 30° |
| 2026-05-05 10:17 | 37.73299 | -77.51830 | 37007 ft | 478 kts | 30° |
| 2026-05-05 10:17 | 37.78767 | -77.47096 | 37007 ft | 477 kts | 30° |
| 2026-05-05 10:18 | 37.84219 | -77.42366 | 37001 ft | 476 kts | 31° |
| 2026-05-05 10:18 | 37.89677 | -77.37623 | 36997 ft | 476 kts | 31° |
| 2026-05-05 10:19 | 37.95142 | -77.32864 | 36979 ft | 476 kts | 31° |
| 2026-05-05 10:19 | 38.00610 | -77.28094 | 36982 ft | 478 kts | 31° |
| 2026-05-05 10:20 | 38.06057 | -77.23333 | 36976 ft | 477 kts | 31° |
| 2026-05-05 10:20 | 38.11511 | -77.18557 | 36975 ft | 475 kts | 31° |
| 2026-05-05 10:21 | 38.16964 | -77.13775 | 36982 ft | 477 kts | 31° |
| 2026-05-05 10:21 | 38.22410 | -77.08989 | 36971 ft | 476 kts | 31° |
| 2026-05-05 10:22 | 38.27835 | -77.04212 | 36980 ft | 475 kts | 31° |
| 2026-05-05 10:22 | 38.33319 | -76.99376 | 36964 ft | 476 kts | 32° |
| 2026-05-05 10:23 | 38.38739 | -76.94585 | 36477 ft | 472 kts | 31° |
| 2026-05-05 10:23 | 38.41435 | -76.92198 | 36182 ft | 465 kts | 31° |
| 2026-05-05 10:23 | 38.44106 | -76.89831 | 35902 ft | 459 kts | 31° |
| 2026-05-05 10:24 | 38.46714 | -76.87518 | 35618 ft | 453 kts | 31° |
| 2026-05-05 10:24 | 38.49273 | -76.85247 | 35341 ft | 447 kts | 31° |
| 2026-05-05 10:24 | 38.51826 | -76.82980 | 35056 ft | 442 kts | 31° |
| 2026-05-05 10:24 | 38.54316 | -76.80766 | 34763 ft | 437 kts | 31° |
| 2026-05-05 10:25 | 38.56788 | -76.78567 | 34453 ft | 428 kts | 31° |
| 2026-05-05 10:25 | 38.59204 | -76.76414 | 34123 ft | 421 kts | 31° |
| 2026-05-05 10:25 | 38.61607 | -76.74274 | 33808 ft | 422 kts | 31° |
| 2026-05-05 10:25 | 38.64030 | -76.72115 | 33509 ft | 427 kts | 31° |
| 2026-05-05 10:26 | 38.66497 | -76.69913 | 33208 ft | 430 kts | 31° |
| 2026-05-05 10:26 | 38.68943 | -76.67728 | 32901 ft | 429 kts | 31° |
| 2026-05-05 10:26 | 38.71383 | -76.65544 | 32587 ft | 424 kts | 31° |
| 2026-05-05 10:26 | 38.73791 | -76.63389 | 32272 ft | 419 kts | 31° |
| 2026-05-05 10:27 | 38.76176 | -76.61253 | 31963 ft | 417 kts | 31° |
| 2026-05-05 10:27 | 38.78547 | -76.59127 | 31655 ft | 416 kts | 31° |
| 2026-05-05 10:27 | 38.80941 | -76.56979 | 31350 ft | 416 kts | 31° |
| 2026-05-05 10:27 | 38.83289 | -76.54871 | 31048 ft | 414 kts | 31° |
| 2026-05-05 10:28 | 38.85660 | -76.52741 | 30742 ft | 412 kts | 31° |
| 2026-05-05 10:28 | 38.88016 | -76.50621 | 30429 ft | 409 kts | 31° |
| 2026-05-05 10:28 | 38.90333 | -76.48535 | 30111 ft | 408 kts | 31° |
| 2026-05-05 10:28 | 38.92645 | -76.46452 | 29794 ft | 406 kts | 31° |
| 2026-05-05 10:29 | 38.94953 | -76.44371 | 29478 ft | 404 kts | 31° |
| 2026-05-05 10:29 | 38.97259 | -76.42291 | 29159 ft | 402 kts | 31° |
| 2026-05-05 10:29 | 38.99547 | -76.40224 | 28840 ft | 400 kts | 31° |
| 2026-05-05 10:29 | 39.01794 | -76.38192 | 28524 ft | 399 kts | 31° |
| 2026-05-05 10:30 | 39.03946 | -76.35903 | 28217 ft | 401 kts | 38° |
| 2026-05-05 10:30 | 39.06039 | -76.33484 | 27897 ft | 400 kts | 38° |
| 2026-05-05 10:30 | 39.08116 | -76.31086 | 27570 ft | 399 kts | 38° |
| 2026-05-05 10:30 | 39.10153 | -76.28721 | 27241 ft | 397 kts | 39° |
| 2026-05-05 10:31 | 39.12198 | -76.26341 | 26951 ft | 394 kts | 39° |
| 2026-05-05 10:31 | 39.14206 | -76.23996 | 26938 ft | 387 kts | 39° |
| 2026-05-05 10:31 | 39.16223 | -76.21644 | 26946 ft | 390 kts | 39° |
| 2026-05-05 10:31 | 39.18254 | -76.19273 | 26946 ft | 398 kts | 39° |
| 2026-05-05 10:32 | 39.20316 | -76.16860 | 26942 ft | 399 kts | 39° |
| 2026-05-05 10:32 | 39.22335 | -76.14495 | 26933 ft | 396 kts | 39° |
| 2026-05-05 10:32 | 39.24371 | -76.12109 | 26942 ft | 394 kts | 39° |
| 2026-05-05 10:32 | 39.26399 | -76.09730 | 26939 ft | 393 kts | 39° |
| 2026-05-05 10:33 | 39.28436 | -76.07340 | 26940 ft | 395 kts | 39° |
| 2026-05-05 10:33 | 39.30470 | -76.04951 | 26601 ft | 403 kts | 39° |
| 2026-05-05 10:33 | 39.32533 | -76.02525 | 26204 ft | 400 kts | 39° |
| 2026-05-05 10:33 | 39.34602 | -76.00088 | 25796 ft | 397 kts | 39° |
| 2026-05-05 10:34 | 39.36617 | -75.97715 | 25392 ft | 394 kts | 39° |
| 2026-05-05 10:34 | 39.38642 | -75.95328 | 24988 ft | 391 kts | 39° |
| 2026-05-05 10:34 | 39.40637 | -75.92973 | 24593 ft | 389 kts | 38° |
| 2026-05-05 10:34 | 39.42616 | -75.90636 | 24196 ft | 386 kts | 38° |
| 2026-05-05 10:35 | 39.44599 | -75.88294 | 23800 ft | 383 kts | 38° |
| 2026-05-05 10:35 | 39.46556 | -75.85979 | 23412 ft | 381 kts | 38° |
| 2026-05-05 10:35 | 39.48496 | -75.83684 | 23033 ft | 379 kts | 39° |
| 2026-05-05 10:35 | 39.50450 | -75.81370 | 22651 ft | 376 kts | 39° |
| 2026-05-05 10:36 | 39.52366 | -75.79098 | 22270 ft | 374 kts | 39° |
| 2026-05-05 10:36 | 39.54272 | -75.76836 | 21890 ft | 372 kts | 39° |
| 2026-05-05 10:36 | 39.56179 | -75.74573 | 21507 ft | 370 kts | 39° |
| 2026-05-05 10:36 | 39.58084 | -75.72310 | 21126 ft | 368 kts | 39° |
| 2026-05-05 10:37 | 39.59954 | -75.70085 | 20748 ft | 366 kts | 39° |
| 2026-05-05 10:37 | 39.61817 | -75.67868 | 20376 ft | 365 kts | 39° |
| 2026-05-05 10:37 | 39.63688 | -75.65641 | 20008 ft | 363 kts | 39° |
| 2026-05-05 10:37 | 39.65529 | -75.63444 | 19932 ft | 354 kts | 39° |
| 2026-05-05 10:38 | 39.67323 | -75.61306 | 19940 ft | 355 kts | 39° |
| 2026-05-05 10:38 | 39.69156 | -75.59113 | 19954 ft | 364 kts | 39° |
| 2026-05-05 10:38 | 39.71036 | -75.56850 | 19879 ft | 370 kts | 39° |
| 2026-05-05 10:38 | 39.72931 | -75.54569 | 19621 ft | 370 kts | 39° |
| 2026-05-05 10:39 | 39.74820 | -75.52291 | 19369 ft | 364 kts | 39° |
| 2026-05-05 10:39 | 39.76659 | -75.50073 | 19101 ft | 359 kts | 39° |
| 2026-05-05 10:39 | 39.78488 | -75.47868 | 18614 ft | 362 kts | 39° |
| 2026-05-05 10:39 | 39.80342 | -75.45631 | 18065 ft | 365 kts | 39° |
| 2026-05-05 10:40 | 39.82190 | -75.43400 | 17585 ft | 366 kts | 39° |
| 2026-05-05 10:40 | 39.84080 | -75.41113 | 17091 ft | 367 kts | 39° |
| 2026-05-05 10:40 | 39.85931 | -75.38874 | 16671 ft | 365 kts | 40° |
| 2026-05-05 10:40 | 39.87792 | -75.36620 | 16249 ft | 364 kts | 40° |
| 2026-05-05 10:41 | 39.89649 | -75.34368 | 15825 ft | 363 kts | 40° |
| 2026-05-05 10:41 | 39.91474 | -75.32155 | 15407 ft | 362 kts | 40° |
| 2026-05-05 10:41 | 39.93320 | -75.29913 | 14979 ft | 360 kts | 40° |
| 2026-05-05 10:41 | 39.95152 | -75.27688 | 14594 ft | 358 kts | 40° |
| 2026-05-05 10:42 | 39.98751 | -75.23312 | 13844 ft | 352 kts | 40° |
| 2026-05-05 10:42 | 40.00516 | -75.21160 | 13578 ft | 346 kts | 40° |
| 2026-05-05 10:42 | 40.02274 | -75.19019 | 13350 ft | 339 kts | 40° |
| 2026-05-05 10:43 | 40.03985 | -75.16932 | 13142 ft | 332 kts | 40° |
| 2026-05-05 10:43 | 40.05649 | -75.14901 | 12936 ft | 329 kts | 40° |
| 2026-05-05 10:43 | 40.07320 | -75.12861 | 12738 ft | 328 kts | 40° |
| 2026-05-05 10:43 | 40.08763 | -75.11098 | 12567 ft | 328 kts | 41° |
| 2026-05-05 10:44 | 40.09323 | -75.10414 | 12499 ft | 328 kts | 41° |
| 2026-05-05 10:44 | 40.10054 | -75.09521 | 12414 ft | 327 kts | 41° |
| 2026-05-05 10:44 | 40.11760 | -75.07434 | 12213 ft | 326 kts | 41° |
| 2026-05-05 10:44 | 40.13198 | -75.05673 | 12040 ft | 325 kts | 41° |
| 2026-05-05 10:45 | 40.14180 | -75.04471 | 11928 ft | 324 kts | 41° |
| 2026-05-05 10:45 | 40.14578 | -75.03982 | 11882 ft | 324 kts | 41° |
| 2026-05-05 10:45 | 40.16220 | -75.01970 | 11678 ft | 323 kts | 41° |
| 2026-05-05 10:45 | 40.17866 | -74.99951 | 11498 ft | 321 kts | 41° |
| 2026-05-05 10:46 | 40.19472 | -74.97979 | 11291 ft | 315 kts | 41° |
| 2026-05-05 10:46 | 40.21043 | -74.96049 | 11097 ft | 309 kts | 41° |
| 2026-05-05 10:46 | 40.22597 | -74.94138 | 10911 ft | 302 kts | 41° |
| 2026-05-05 10:46 | 40.24116 | -74.92271 | 10711 ft | 297 kts | 41° |
| 2026-05-05 10:47 | 40.25603 | -74.90406 | 10519 ft | 292 kts | 44° |
| 2026-05-05 10:47 | 40.26969 | -74.88488 | 10323 ft | 288 kts | 45° |
| 2026-05-05 10:47 | 40.28319 | -74.86591 | 10120 ft | 283 kts | 45° |
| 2026-05-05 10:47 | 40.29653 | -74.84720 | 9927 ft | 279 kts | 45° |
| 2026-05-05 10:48 | 40.30970 | -74.82871 | 9720 ft | 276 kts | 45° |
| 2026-05-05 10:48 | 40.32264 | -74.81055 | 9516 ft | 272 kts | 45° |
| 2026-05-05 10:48 | 40.33553 | -74.79243 | 9310 ft | 269 kts | 45° |
| 2026-05-05 10:48 | 40.34819 | -74.77462 | 9113 ft | 267 kts | 45° |
| 2026-05-05 10:49 | 40.36087 | -74.75679 | 9025 ft | 260 kts | 45° |
| 2026-05-05 10:49 | 40.37300 | -74.73971 | 8868 ft | 260 kts | 45° |
| 2026-05-05 10:49 | 40.38547 | -74.72217 | 8681 ft | 264 kts | 45° |
| 2026-05-05 10:49 | 40.39800 | -74.70451 | 8487 ft | 264 kts | 45° |
| 2026-05-05 10:50 | 40.41036 | -74.68707 | 8288 ft | 261 kts | 45° |
| 2026-05-05 10:50 | 40.42444 | -74.67220 | 8068 ft | 254 kts | 20° |
| 2026-05-05 10:50 | 40.44090 | -74.66593 | 8009 ft | 246 kts | 7° |
| 2026-05-05 10:50 | 40.45783 | -74.66092 | 8010 ft | 250 kts | 7° |
| 2026-05-05 10:51 | 40.47473 | -74.65607 | 8003 ft | 248 kts | 6° |
| 2026-05-05 10:51 | 40.49161 | -74.65137 | 8007 ft | 245 kts | 6° |
| 2026-05-05 10:51 | 40.50837 | -74.64680 | 8016 ft | 245 kts | 6° |
| 2026-05-05 10:51 | 40.52496 | -74.64232 | 8002 ft | 245 kts | 6° |
| 2026-05-05 10:52 | 40.54172 | -74.63780 | 8000 ft | 245 kts | 6° |
| 2026-05-05 10:52 | 40.55859 | -74.63328 | 8006 ft | 245 kts | 6° |
| 2026-05-05 10:52 | 40.57531 | -74.62879 | 8010 ft | 245 kts | 6° |
| 2026-05-05 10:52 | 40.59158 | -74.62438 | 7980 ft | 228 kts | 6° |
| 2026-05-05 10:53 | 40.60646 | -74.62033 | 7986 ft | 210 kts | 5° |
| 2026-05-05 10:53 | 40.62060 | -74.61657 | 8029 ft | 213 kts | 5° |
| 2026-05-05 10:53 | 40.63551 | -74.61266 | 8013 ft | 220 kts | 5° |
| 2026-05-05 10:53 | 40.65052 | -74.60861 | 7951 ft | 220 kts | 5° |
| 2026-05-05 10:54 | 40.66555 | -74.60458 | 7869 ft | 214 kts | 5° |
| 2026-05-05 10:54 | 40.68016 | -74.60064 | 7896 ft | 215 kts | 5° |
| 2026-05-05 10:54 | 40.69505 | -74.59667 | 7913 ft | 219 kts | 5° |
| 2026-05-05 10:54 | 40.71009 | -74.59262 | 7901 ft | 218 kts | 5° |
| 2026-05-05 10:55 | 40.72485 | -74.58864 | 7890 ft | 217 kts | 5° |
| 2026-05-05 10:55 | 40.73972 | -74.58464 | 7889 ft | 217 kts | 5° |
| 2026-05-05 10:55 | 40.75458 | -74.58065 | 7897 ft | 218 kts | 5° |
| 2026-05-05 10:55 | 40.76951 | -74.57663 | 7898 ft | 217 kts | 5° |
| 2026-05-05 10:56 | 40.78425 | -74.57265 | 7891 ft | 217 kts | 5° |
| 2026-05-05 10:56 | 40.79893 | -74.56868 | 7874 ft | 217 kts | 6° |
| 2026-05-05 10:56 | 40.81296 | -74.55982 | 7765 ft | 231 kts | 38° |
| 2026-05-05 10:56 | 40.82182 | -74.54202 | 7513 ft | 235 kts | 73° |
| 2026-05-05 10:57 | 40.82223 | -74.52126 | 7217 ft | 222 kts | 109° |
| 2026-05-05 10:57 | 40.81701 | -74.50251 | 6941 ft | 216 kts | 116° |
| 2026-05-05 10:57 | 40.81309 | -74.48322 | 6638 ft | 220 kts | 103° |
| 2026-05-05 10:57 | 40.81184 | -74.46308 | 6344 ft | 223 kts | 94° |
| 2026-05-05 10:58 | 40.81206 | -74.44275 | 6045 ft | 222 kts | 90° |
| 2026-05-05 10:58 | 40.81313 | -74.42233 | 5740 ft | 222 kts | 87° |
| 2026-05-05 10:58 | 40.81472 | -74.40205 | 5437 ft | 221 kts | 85° |
| 2026-05-05 10:58 | 40.81657 | -74.38203 | 5140 ft | 221 kts | 84° |
| 2026-05-05 10:59 | 40.81858 | -74.36213 | 4869 ft | 215 kts | 84° |
| 2026-05-05 10:59 | 40.82061 | -74.34280 | 4594 ft | 208 kts | 84° |
| 2026-05-05 10:59 | 40.82262 | -74.32407 | 4316 ft | 202 kts | 84° |
| 2026-05-05 10:59 | 40.82458 | -74.30606 | 4052 ft | 197 kts | 84° |
| 2026-05-05 11:00 | 40.82650 | -74.28855 | 3846 ft | 189 kts | 84° |
| 2026-05-05 11:00 | 40.82834 | -74.27174 | 3635 ft | 182 kts | 84° |
| 2026-05-05 11:00 | 40.83013 | -74.25538 | 3419 ft | 176 kts | 84° |
| 2026-05-05 11:00 | 40.83186 | -74.23964 | 3256 ft | 170 kts | 84° |
| 2026-05-05 11:01 | 40.83352 | -74.22446 | 3152 ft | 171 kts | 85° |
| 2026-05-05 11:01 | 40.83523 | -74.20866 | 2998 ft | 175 kts | 84° |
| 2026-05-05 11:01 | 40.83697 | -74.19287 | 2819 ft | 172 kts | 84° |
| 2026-05-05 11:01 | 40.83869 | -74.17718 | 2630 ft | 170 kts | 85° |
| 2026-05-05 11:02 | 40.84038 | -74.16172 | 2453 ft | 171 kts | 84° |
| 2026-05-05 11:02 | 40.84207 | -74.14618 | 2278 ft | 170 kts | 85° |
| 2026-05-05 11:02 | 40.84375 | -74.13079 | 2099 ft | 169 kts | 85° |
| 2026-05-05 11:02 | 40.84541 | -74.11558 | 1983 ft | 164 kts | 85° |
| 2026-05-05 11:03 | 40.84703 | -74.10055 | 2013 ft | 166 kts | 85° |
| 2026-05-05 11:03 | 40.84833 | -74.08518 | 1998 ft | 169 kts | 98° |
| 2026-05-05 11:03 | 40.84436 | -74.07182 | 1989 ft | 149 kts | 145° |
| 2026-05-05 11:03 | 40.83567 | -74.06663 | 2026 ft | 132 kts | 191° |
| 2026-05-05 11:04 | 40.82798 | -74.07117 | 2015 ft | 119 kts | 227° |
| 2026-05-05 11:04 | 40.82171 | -74.07826 | 1986 ft | 121 kts | 215° |
| 2026-05-05 11:04 | 40.81457 | -74.08422 | 2004 ft | 119 kts | 221° |
| 2026-05-05 11:04 | 40.80772 | -74.09056 | 2003 ft | 121 kts | 218° |
| 2026-05-05 11:05 | 40.80061 | -74.09676 | 1998 ft | 121 kts | 218° |
| 2026-05-05 11:05 | 40.79338 | -74.10258 | 1983 ft | 123 kts | 216° |
| 2026-05-05 11:05 | 40.78576 | -74.10815 | 1898 ft | 125 kts | 214° |
| 2026-05-05 11:05 | 40.77815 | -74.11324 | 1839 ft | 122 kts | 213° |
| 2026-05-05 11:06 | 40.77040 | -74.11855 | 1672 ft | 127 kts | 212° |
| 2026-05-05 11:06 | 40.76260 | -74.12358 | 1483 ft | 121 kts | 211° |
| 2026-05-05 11:06 | 40.75515 | -74.12840 | 1217 ft | 120 kts | 212° |
| 2026-05-05 11:06 | 40.74759 | -74.13351 | 1038 ft | 127 kts | 211° |
| 2026-05-05 11:07 | 40.73925 | -74.13883 | 887 ft | 135 kts | 208° |
| 2026-05-05 11:07 | 40.73102 | -74.14401 | 662 ft | 123 kts | 209° |
| 2026-05-05 11:07 | 40.72334 | -74.14899 | 467 ft | 132 kts | 209° |
| 2026-05-05 11:07 | 40.71481 | -74.15444 | 355 ft | 134 kts | 207° |
| 2026-05-05 11:08 | 40.70645 | -74.15969 | 157 ft | 137 kts | 208° |
| 2026-05-05 11:08 | 40.69778 | -74.16529 | 47 ft | 134 kts | 206° |
| 2026-05-05 11:08 | 40.69002 | -74.17020 | 18 ft | 106 kts | 206° |
| 2026-05-05 11:08 | 40.68534 | -74.17317 | 18 ft | 48 kts | 205° |
| 2026-05-05 11:09 | 40.68344 | -74.17481 | 18 ft | 25 kts | 222° |
| 2026-05-05 11:09 | 40.68302 | -74.17544 | 18 ft | 2 kts | 240° |
| 2026-05-05 11:09 | 40.68287 | -74.17579 | 18 ft | 6 kts | 240° |
| 2026-05-05 11:09 | 40.68271 | -74.17631 | 18 ft | 6 kts | 256° |
| 2026-05-05 11:10 | 40.68276 | -74.17682 | 18 ft | 5 kts | 292° |
| 2026-05-05 11:10 | 40.68299 | -74.17734 | 18 ft | 7 kts | 300° |
| 2026-05-05 11:10 | 40.68328 | -74.17799 | 18 ft | 9 kts | 300° |
| 2026-05-05 11:10 | 40.68362 | -74.17880 | 18 ft | 10 kts | 298° |
| 2026-05-05 11:11 | 40.68399 | -74.17974 | 18 ft | 12 kts | 297° |
| 2026-05-05 11:11 | 40.68439 | -74.18079 | 18 ft | 11 kts | 296° |
| 2026-05-05 11:11 | 40.68450 | -74.18147 | 18 ft | 5 kts | 248° |
| 2026-05-05 11:11 | 40.68428 | -74.18192 | 18 ft | 4 kts | 232° |
| 2026-05-05 11:12 | 40.68415 | -74.18212 | 18 ft | 1 kts | 229° |
| 2026-05-05 11:12 | 40.68415 | -74.18214 | 18 ft | 0 kts | 229° |